Date,TemperatureHighF,TemperatureAvgF,TemperatureLowF,DewpointHighF,DewpointAvgF,DewpointLowF,HumidityHigh,HumidityAvg,HumidityLow,PressureMaxIn,PressureMinIn,WindSpeedMaxMPH,WindSpeedAvgMPH,GustSpeedMaxMPH,PrecipitationSumIn
2013-10-1,86.1,68.5,55.4,63.0,58.2,52.6,91,72,42,29.95,29.83,9,0,9,0.00
2013-10-2,86.3,72.0,59.4,66.7,62.1,56.7,92,73,49,29.96,29.84,11,0,11,0.00
2013-10-3,81.7,69.8,59.6,62.8,59.0,55.1,92,70,47,30.07,29.95,10,1,10,0.00
2013-10-4,73.6,65.5,62.7,66.8,61.2,59.2,91,86,78,30.02,29.98,8,0,8,0.00
2013-10-5,84.8,72.3,0.0,69.8,65.8,63.7,92,79,60,30.04,29.97,8,0,8,0.00
2013-10-6,68.7,66.6,65.0,66.9,65.0,63.6,97,95,92,30.05,29.98,7,0,12,0.01
2013-10-7,74.8,68.1,61.0,70.3,65.5,53.3,98,91,76,29.99,29.73,25,3,25,0.31
2013-10-8,72.5,61.9,54.9,53.7,49.0,46.5,79,64,43,30.20,29.92,14,1,14,0.00
2013-10-10,61.0,59.0,0.0,56.0,55.3,54.6,85,83,83,30.06,30.00,13,1,13,0.00
2013-10-11,65.8,62.4,58.8,60.7,57.8,53.1,91,85,70,30.03,29.94,13,1,13,0.01
2013-10-12,75.6,64.1,57.4,58.5,52.0,42.0,80,66,33,30.23,30.00,19,1,19,0.03
2013-10-13,70.3,60.5,55.0,56.3,52.4,49.2,85,75,58,30.33,30.21,13,0,13,0.00
2013-10-14,71.6,57.7,48.1,55.0,50.4,45.0,91,78,54,30.31,30.19,8,0,8,0.00
2013-10-15,78.0,60.4,50.4,62.3,52.3,48.1,95,77,43,30.21,30.05,10,0,10,0.00
2013-10-16,67.0,60.4,53.6,60.4,56.4,50.2,94,87,75,30.06,29.86,7,0,7,0.00
2013-10-17,75.1,64.4,60.6,64.8,61.4,58.9,97,90,69,29.87,29.64,11,1,11,0.03
2013-10-18,73.6,63.3,56.9,63.1,50.5,44.4,97,65,42,29.93,29.61,15,1,15,0.02
2013-10-19,63.7,57.0,48.7,56.2,49.1,43.9,88,76,60,29.93,29.68,15,1,15,0.00
2013-10-20,70.0,57.4,49.5,56.1,44.0,38.3,91,63,37,30.01,29.67,13,1,15,0.00
2013-10-21,71.7,56.5,44.6,50.1,44.0,40.1,87,66,34,30.09,29.92,14,1,14,0.00
2013-10-22,71.7,58.0,50.7,52.5,48.4,40.8,91,71,49,29.93,29.68,10,1,13,0.00
2013-10-23,54.8,50.4,46.4,44.6,40.1,36.6,81,68,52,29.75,29.55,6,0,10,0.00
2013-10-24,56.2,47.3,41.3,37.3,32.6,27.0,77,58,41,29.94,29.67,15,2,15,0.01
2013-10-25,59.2,46.9,40.4,36.3,32.7,29.2,72,58,40,30.17,29.93,18,1,18,0.00
2013-10-26,59.6,48.5,39.1,37.0,34.9,32.4,83,61,39,30.16,29.84,24,3,24,0.00
2013-10-27,66.3,52.9,46.9,38.5,34.9,32.8,62,51,35,30.06,29.79,12,1,12,0.00
2013-10-28,65.3,51.5,40.2,41.3,36.5,33.6,82,59,37,30.26,30.06,12,1,12,0.00
2013-10-29,63.4,50.5,43.9,40.4,37.7,34.8,79,63,39,30.36,30.25,10,0,10,0.00
2013-10-30,59.2,52.2,44.2,53.1,45.7,36.9,91,79,66,30.30,30.12,13,1,13,0.00
2013-10-31,63.1,58.3,50.9,60.0,55.8,48.3,97,91,86,30.17,29.75,17,2,17,0.02